createdAt,value
2018-08-27T00:01:01.660Z,1.07
2018-08-27T00:03:30.144Z,1.77
2018-08-27T00:05:59.347Z,1.30
2018-08-27T00:08:27.925Z,1.30
2018-08-27T00:10:56.581Z,1.43
2018-08-27T00:13:25.081Z,0.90
2018-08-27T00:15:53.702Z,1.40
2018-08-27T00:18:22.273Z,1.20
2018-08-27T00:20:51.323Z,1.20
2018-08-27T00:23:19.948Z,1.40
2018-08-27T00:25:49.389Z,1.80
2018-08-27T00:28:17.941Z,1.63
2018-08-27T00:30:47.288Z,1.70
2018-08-27T00:33:16.502Z,1.43
2018-08-27T00:35:45.679Z,1.53
2018-08-27T00:38:14.239Z,1.93
2018-08-27T00:40:50.903Z,1.93
2018-08-27T00:43:20.544Z,1.70
2018-08-27T00:45:50.107Z,1.67
2018-08-27T00:48:19.489Z,1.57
2018-08-27T00:50:48.974Z,2.00
2018-08-27T00:53:17.534Z,1.90
2018-08-27T00:55:46.110Z,1.80
2018-08-27T00:58:14.733Z,2.03
2018-08-27T01:00:43.311Z,1.73
2018-08-27T01:03:11.813Z,1.60
2018-08-27T01:05:40.370Z,1.80
2018-08-27T01:08:08.897Z,1.70
2018-08-27T01:10:37.424Z,1.73
2018-08-27T01:13:06.230Z,1.50
2018-08-27T01:15:34.830Z,2.00
2018-08-27T01:18:04.641Z,1.87
2018-08-27T01:20:33.413Z,1.77
2018-08-27T01:23:01.969Z,1.50
2018-08-27T01:25:31.156Z,2.80
2018-08-27T01:27:59.622Z,2.23
2018-08-27T01:30:28.421Z,2.03
2018-08-27T01:32:56.929Z,1.63
2018-08-27T01:35:25.452Z,1.83
2018-08-27T01:37:53.956Z,1.70
2018-08-27T01:40:22.602Z,1.83
2018-08-27T01:42:51.073Z,1.73
2018-08-27T01:45:19.804Z,1.87
2018-08-27T01:47:49.244Z,1.77
2018-08-27T01:50:17.754Z,1.90
2018-08-27T01:52:46.233Z,2.30
2018-08-27T01:55:14.760Z,1.87
2018-08-27T01:57:43.565Z,2.27
2018-08-27T02:00:12.223Z,2.37
2018-08-27T02:02:41.288Z,2.30
2018-08-27T02:05:11.317Z,2.20
2018-08-27T02:07:39.806Z,2.50
2018-08-27T02:10:08.341Z,2.23
2018-08-27T02:12:36.845Z,1.80
2018-08-27T02:15:05.443Z,2.40
2018-08-27T02:17:34.133Z,2.20
2018-08-27T02:20:02.714Z,2.20
2018-08-27T02:22:31.250Z,2.27
2018-08-27T02:24:59.753Z,2.10
2018-08-27T02:27:28.604Z,2.87
2018-08-27T02:29:57.114Z,2.77
2018-08-27T02:32:26.329Z,2.20
2018-08-27T02:34:55.050Z,2.33
2018-08-27T02:37:23.569Z,2.47
2018-08-27T02:39:52.055Z,2.50
2018-08-27T02:42:20.604Z,2.77
2018-08-27T02:44:49.213Z,2.60
2018-08-27T02:47:18.049Z,2.83
2018-08-27T02:49:46.806Z,2.70
2018-08-27T02:52:15.454Z,3.40
2018-08-27T02:54:43.986Z,2.80
2018-08-27T02:57:12.928Z,2.97
2018-08-27T02:59:41.410Z,3.10
2018-08-27T03:02:10.386Z,3.57
2018-08-27T03:04:38.921Z,3.40
2018-08-27T03:07:07.467Z,2.60
2018-08-27T03:09:35.991Z,3.40
2018-08-27T03:12:04.519Z,2.97
2018-08-27T03:14:33.078Z,2.90
2018-08-27T03:17:01.557Z,2.90
2018-08-27T03:19:30.072Z,3.13
2018-08-27T03:21:58.643Z,2.60
2018-08-27T03:24:27.295Z,2.70
2018-08-27T03:26:55.802Z,2.30
2018-08-27T03:29:24.396Z,3.07
2018-08-27T03:31:52.891Z,2.63
2018-08-27T03:34:23.803Z,2.93
2018-08-27T03:36:53.068Z,2.90
2018-08-27T03:39:21.688Z,3.20
2018-08-27T03:41:50.197Z,2.90
2018-08-27T03:44:19.025Z,2.73
2018-08-27T03:46:47.857Z,3.13
2018-08-27T03:49:16.940Z,2.63
2018-08-27T03:51:45.495Z,3.40
2018-08-27T03:54:14.050Z,3.20
2018-08-27T03:56:42.572Z,3.07
2018-08-27T03:59:11.848Z,3.10
2018-08-27T04:01:40.452Z,3.60
2018-08-27T04:04:09.018Z,3.30
2018-08-27T04:06:37.512Z,2.90
2018-08-27T04:09:07.915Z,3.30
2018-08-27T04:11:36.407Z,3.43
2018-08-27T04:14:05.357Z,3.10
2018-08-27T04:16:33.853Z,2.87
2018-08-27T04:19:02.708Z,3.30
2018-08-27T04:21:31.702Z,3.00
2018-08-27T04:24:01.136Z,2.83
2018-08-27T04:26:29.656Z,3.20
2018-08-27T04:28:58.230Z,3.60
2018-08-27T04:31:27.392Z,3.80
2018-08-27T04:33:55.962Z,3.27
2018-08-27T04:36:25.356Z,3.67
2018-08-27T04:38:54.087Z,3.10
2018-08-27T04:41:22.865Z,2.97
2018-08-27T04:43:52.244Z,3.07
2018-08-27T04:46:21.084Z,3.23
2018-08-27T04:48:50.317Z,3.50
2018-08-27T04:51:18.839Z,2.93
2018-08-27T04:53:47.388Z,4.10
2018-08-27T04:56:16.477Z,4.23
2018-08-27T04:58:47.127Z,3.90
2018-08-27T05:01:16.220Z,3.30
2018-08-27T05:03:44.748Z,3.63
2018-08-27T05:06:13.238Z,4.77
2018-08-27T05:08:41.798Z,5.03
2018-08-27T05:11:10.437Z,6.23
2018-08-27T05:13:39.099Z,6.70
2018-08-27T05:16:07.620Z,4.70
2018-08-27T05:18:36.712Z,4.97
2018-08-27T05:21:05.534Z,3.00
2018-08-27T05:23:34.372Z,3.60
2018-08-27T05:26:02.861Z,3.43
2018-08-27T05:28:31.382Z,3.63
2018-08-27T05:30:59.962Z,3.67
2018-08-27T05:33:28.573Z,3.60
2018-08-27T05:35:57.284Z,3.30
2018-08-27T05:38:26.732Z,2.70
2018-08-27T05:40:55.872Z,2.83
2018-08-27T05:43:24.379Z,2.60
2018-08-27T05:45:53.006Z,3.27
2018-08-27T05:48:21.542Z,2.83
2018-08-27T05:50:50.106Z,3.73
2018-08-27T05:53:18.625Z,3.60
2018-08-27T05:55:47.187Z,4.17
2018-08-27T05:58:16.060Z,2.80
2018-08-27T06:00:44.737Z,3.30
2018-08-27T06:03:13.272Z,3.37
2018-08-27T06:05:41.942Z,2.97
2018-08-27T06:08:10.626Z,2.87
2018-08-27T06:10:39.179Z,2.50
2018-08-27T06:13:08.631Z,3.00
2018-08-27T06:15:37.164Z,2.90
2018-08-27T06:18:06.186Z,3.17
2018-08-27T06:20:34.825Z,3.07
2018-08-27T06:23:03.411Z,3.43
2018-08-27T06:25:31.965Z,3.60
2018-08-27T06:28:00.627Z,2.90
2018-08-27T06:30:29.402Z,2.43
2018-08-27T06:32:59.012Z,3.00
2018-08-27T06:35:28.161Z,2.90
2018-08-27T06:37:56.800Z,2.17
2018-08-27T06:40:25.320Z,2.60
2018-08-27T06:42:54.034Z,2.90
2018-08-27T06:45:22.618Z,2.40
2018-08-27T06:47:51.257Z,2.70
2018-08-27T06:50:20.203Z,2.43
2018-08-27T06:52:48.862Z,2.20
2018-08-27T06:55:17.428Z,2.50
2018-08-27T06:57:46.010Z,1.87
2018-08-27T07:00:14.653Z,2.17
2018-08-27T07:02:43.452Z,2.27
2018-08-27T07:05:12.472Z,2.43
2018-08-27T07:07:41.443Z,2.13
2018-08-27T07:10:09.982Z,2.30
2018-08-27T07:12:38.477Z,2.73
2018-08-27T07:15:08.140Z,1.97
2018-08-27T07:17:36.695Z,1.97
2018-08-27T07:20:06.837Z,2.60
2018-08-27T07:22:35.597Z,1.40
2018-08-27T07:25:04.532Z,1.50
2018-08-27T07:27:33.334Z,1.70
2018-08-27T07:30:02.783Z,1.77
2018-08-27T07:32:31.466Z,1.63
2018-08-27T07:35:00.035Z,1.73
2018-08-27T07:37:29.169Z,1.90
2018-08-27T07:39:57.795Z,1.07
2018-08-27T07:42:26.319Z,1.27
2018-08-27T07:44:55.913Z,1.37
2018-08-27T07:47:24.422Z,1.70
2018-08-27T07:49:53.082Z,1.20
2018-08-27T07:52:21.782Z,1.33
2018-08-27T07:54:50.549Z,1.70
2018-08-27T07:57:19.388Z,1.30
2018-08-27T07:59:48.619Z,1.47
2018-08-27T08:02:17.458Z,1.60
2018-08-27T08:04:46.361Z,1.90
2018-08-27T08:07:15.779Z,1.67
2018-08-27T08:09:44.840Z,1.70
2018-08-27T08:12:13.536Z,1.87
2018-08-27T08:14:42.092Z,1.63
2018-08-27T08:17:10.602Z,1.50
2018-08-27T08:19:39.152Z,1.43
2018-08-27T08:22:07.769Z,1.60
2018-08-27T08:24:36.328Z,1.40
2018-08-27T08:27:05.153Z,1.57
2018-08-27T08:29:33.748Z,1.63
2018-08-27T08:32:02.254Z,1.70
2018-08-27T08:34:30.959Z,1.40
2018-08-27T08:36:59.479Z,1.80
2018-08-27T08:39:27.969Z,1.87
2018-08-27T08:41:56.551Z,1.20
2018-08-27T08:44:25.220Z,1.03
2018-08-27T08:46:55.199Z,1.53
2018-08-27T08:49:23.735Z,1.70
2018-08-27T08:51:52.278Z,1.30
2018-08-27T08:54:20.973Z,1.27
2018-08-27T08:56:49.565Z,1.80
2018-08-27T08:59:18.054Z,1.50
2018-08-27T09:01:46.706Z,1.33
2018-08-27T09:04:15.158Z,1.50
2018-08-27T09:06:43.710Z,4.70
2018-08-27T09:09:12.255Z,1.67
2018-08-27T09:11:40.764Z,1.33
2018-08-27T09:14:09.291Z,1.20
2018-08-27T09:16:37.815Z,1.30
2018-08-27T09:19:06.387Z,1.40
2018-08-27T09:21:35.141Z,1.50
2018-08-27T09:24:03.674Z,1.63
2018-08-27T09:26:32.903Z,1.40
2018-08-27T09:29:01.463Z,1.50
2018-08-27T09:31:30.536Z,1.40
2018-08-27T09:33:59.022Z,2.03
2018-08-27T09:36:28.175Z,1.53
2018-08-27T09:38:57.139Z,1.30
2018-08-27T09:41:25.652Z,1.40
2018-08-27T09:43:54.224Z,2.00
2018-08-27T09:46:22.834Z,1.27
2018-08-27T09:48:51.443Z,1.50
2018-08-27T09:51:19.940Z,1.67
2018-08-27T09:53:48.513Z,1.20
2018-08-27T09:56:17.113Z,1.60
2018-08-27T09:58:45.912Z,1.70
2018-08-27T10:01:19.624Z,1.47
2018-08-27T10:03:48.272Z,1.60
2018-08-27T10:06:16.786Z,1.60
2018-08-27T10:08:45.400Z,1.40
2018-08-27T10:11:13.889Z,1.50
2018-08-27T10:13:42.539Z,2.00
2018-08-27T10:16:11.077Z,3.03
2018-08-27T10:18:39.637Z,1.73
2018-08-27T10:21:08.463Z,1.60
2018-08-27T10:23:37.348Z,1.50
2018-08-27T10:26:06.200Z,1.97
2018-08-27T10:28:34.836Z,1.57
2018-08-27T10:31:03.377Z,1.47
2018-08-27T10:33:32.354Z,1.30
2018-08-27T10:36:00.854Z,1.43
2018-08-27T10:38:29.766Z,1.80
2018-08-27T10:41:00.026Z,1.60
2018-08-27T10:43:29.149Z,1.87
2018-08-27T10:45:57.734Z,1.50
2018-08-27T10:48:26.797Z,1.37
2018-08-27T10:50:55.551Z,1.50
2018-08-27T10:53:24.074Z,2.00
2018-08-27T10:55:52.667Z,1.70
2018-08-27T10:58:22.284Z,1.47
2018-08-27T11:00:51.429Z,2.03
2018-08-27T11:03:20.071Z,1.50
2018-08-27T11:05:48.697Z,1.90
2018-08-27T11:08:17.260Z,1.53
2018-08-27T11:10:46.148Z,1.67
2018-08-27T11:13:14.589Z,1.47
2018-08-27T11:15:43.864Z,1.80
2018-08-27T11:18:12.618Z,1.50
2018-08-27T11:20:41.772Z,1.60
2018-08-27T11:23:10.270Z,1.40
2018-08-27T11:25:38.872Z,2.03
2018-08-27T11:28:07.838Z,1.60
2018-08-27T11:30:36.908Z,1.70
2018-08-27T11:33:05.502Z,1.53
2018-08-27T11:35:34.160Z,1.80
2018-08-27T11:38:02.730Z,1.50
2018-08-27T11:40:31.314Z,1.77
2018-08-27T11:43:00.694Z,1.70
2018-08-27T11:45:29.237Z,1.93
2018-08-27T11:47:57.792Z,1.80
2018-08-27T11:50:26.521Z,2.00
2018-08-27T11:52:55.269Z,1.93
2018-08-27T11:55:24.003Z,1.80
2018-08-27T11:57:52.570Z,2.00
2018-08-27T12:00:26.312Z,1.80
2018-08-27T12:02:55.174Z,2.07
2018-08-27T12:05:23.981Z,1.60
2018-08-27T12:07:52.510Z,2.00
2018-08-27T12:10:21.478Z,2.00
2018-08-27T12:12:50.034Z,2.07
2018-08-27T12:15:18.676Z,2.00
2018-08-27T12:17:47.320Z,1.63
2018-08-27T12:20:16.227Z,2.47
2018-08-27T12:22:44.786Z,2.10
2018-08-27T12:25:13.511Z,2.10
2018-08-27T12:27:42.089Z,1.53
2018-08-27T12:30:10.812Z,1.90
2018-08-27T12:32:39.562Z,1.60
2018-08-27T12:35:08.368Z,1.17
2018-08-27T12:37:36.973Z,2.00
2018-08-27T12:40:05.850Z,1.70
2018-08-27T12:42:34.330Z,1.60
2018-08-27T12:45:03.123Z,2.20
2018-08-27T12:47:31.764Z,1.90
2018-08-27T12:50:00.699Z,1.83
2018-08-27T12:52:29.230Z,2.10
2018-08-27T12:54:58.838Z,1.70
2018-08-27T12:57:27.392Z,2.10
2018-08-27T12:59:57.139Z,2.03
2018-08-27T13:02:25.720Z,1.73
2018-08-27T13:04:54.251Z,1.80
2018-08-27T13:07:22.759Z,1.63
2018-08-27T13:09:51.320Z,2.03
2018-08-27T13:12:19.939Z,1.33
2018-08-27T13:14:48.561Z,2.00
2018-08-27T13:17:17.719Z,2.00
2018-08-27T13:19:46.286Z,1.90
2018-08-27T13:22:15.155Z,1.93
2018-08-27T13:24:44.195Z,2.00
2018-08-27T13:27:12.807Z,1.60
2018-08-27T13:29:41.392Z,1.73
2018-08-27T13:32:09.941Z,1.70
2018-08-27T13:34:38.690Z,1.77
2018-08-27T13:37:07.261Z,1.87
2018-08-27T13:39:35.899Z,1.53
2018-08-27T13:42:04.441Z,1.57
2018-08-27T13:44:33.165Z,1.60
2018-08-27T13:47:01.682Z,1.87
2018-08-27T13:49:31.120Z,2.03
2018-08-27T13:52:02.127Z,1.40
2018-08-27T13:54:36.436Z,2.40
2018-08-27T13:57:04.960Z,1.60
2018-08-27T13:59:33.609Z,2.20
2018-08-27T14:02:04.168Z,1.77
2018-08-27T14:04:32.756Z,1.50
2018-08-27T14:07:01.335Z,1.97
2018-08-27T14:09:29.959Z,2.00
2018-08-27T14:11:59.419Z,1.73
2018-08-27T14:14:28.425Z,2.20
2018-08-27T14:16:57.688Z,2.10
2018-08-27T14:19:26.369Z,2.23
2018-08-27T14:21:54.828Z,1.47
2018-08-27T14:24:23.383Z,2.00
2018-08-27T14:26:54.947Z,1.80
2018-08-27T14:29:23.735Z,2.10
2018-08-27T14:31:52.409Z,2.30
2018-08-27T14:34:21.723Z,2.00
2018-08-27T14:36:50.673Z,1.63
2018-08-27T14:39:19.331Z,2.43
2018-08-27T14:41:49.114Z,2.10
2018-08-27T14:44:17.955Z,2.00
2018-08-27T14:46:46.740Z,2.00
2018-08-27T14:49:15.316Z,1.63
2018-08-27T14:51:43.847Z,1.93
2018-08-27T14:54:12.597Z,2.23
2018-08-27T14:56:41.238Z,1.70
2018-08-27T14:59:09.886Z,1.67
2018-08-27T15:01:38.459Z,1.80
2018-08-27T15:04:07.076Z,1.60
2018-08-27T15:06:35.603Z,1.67
2018-08-27T15:09:05.479Z,2.20
2018-08-27T15:11:34.082Z,1.83
2018-08-27T15:14:03.329Z,1.70
2018-08-27T15:16:32.074Z,1.10
2018-08-27T15:19:00.630Z,2.63
2018-08-27T15:21:29.217Z,1.50
2018-08-27T15:23:57.861Z,1.50
2018-08-27T15:26:26.553Z,1.60
2018-08-27T15:28:55.119Z,1.30
2018-08-27T15:31:23.694Z,1.27
2018-08-27T15:33:52.298Z,1.20
2018-08-27T15:36:21.441Z,1.57
2018-08-27T15:38:50.026Z,1.73
2018-08-27T15:41:18.574Z,1.50
2018-08-27T15:43:48.356Z,1.67
2018-08-27T15:46:22.154Z,1.63
2018-08-27T15:48:50.748Z,1.53
2018-08-27T15:51:19.397Z,1.90
2018-08-27T15:53:47.854Z,1.27
2018-08-27T15:56:16.408Z,1.60
2018-08-27T15:58:46.319Z,1.90
2018-08-27T16:01:15.154Z,1.43
2018-08-27T16:03:45.011Z,1.60
2018-08-27T16:06:14.163Z,1.30
2018-08-27T16:08:43.604Z,1.93
2018-08-27T16:11:12.843Z,1.90
2018-08-27T16:13:41.443Z,1.90
2018-08-27T16:16:11.407Z,1.90
2018-08-27T16:18:40.000Z,1.70
2018-08-27T16:21:10.346Z,1.80
2018-08-27T16:23:39.620Z,1.60
2018-08-27T16:26:09.071Z,1.37
2018-08-27T16:28:37.579Z,1.20
2018-08-27T16:31:06.655Z,1.70
2018-08-27T16:33:36.014Z,1.97
2018-08-27T16:36:04.603Z,1.93
2018-08-27T16:38:33.111Z,1.80
2018-08-27T16:41:02.591Z,1.40
2018-08-27T16:43:31.463Z,1.73
2018-08-27T16:46:00.225Z,1.60
2018-08-27T16:48:28.805Z,2.03
2018-08-27T16:50:57.371Z,1.87
2018-08-27T16:53:25.911Z,2.00
2018-08-27T16:55:54.518Z,2.10
2018-08-27T16:58:23.110Z,1.93
2018-08-27T17:00:51.694Z,1.83
2018-08-27T17:03:20.258Z,1.47
2018-08-27T17:05:48.881Z,1.80
2018-08-27T17:08:18.093Z,1.67
2018-08-27T17:10:46.873Z,2.00
2018-08-27T17:13:16.995Z,1.60
2018-08-27T17:15:45.788Z,1.47
2018-08-27T17:18:14.350Z,1.93
2018-08-27T17:20:43.111Z,1.40
2018-08-27T17:23:12.622Z,1.70
2018-08-27T17:25:42.200Z,1.30
2018-08-27T17:28:10.785Z,1.90
2018-08-27T17:30:40.383Z,1.60
2018-08-27T17:33:08.970Z,1.70
2018-08-27T17:35:38.596Z,1.53
2018-08-27T17:38:07.625Z,1.80
2018-08-27T17:40:36.309Z,1.43
2018-08-27T17:43:05.413Z,1.40
2018-08-27T17:45:34.034Z,1.37
2018-08-27T17:48:02.675Z,1.33
2018-08-27T17:50:31.253Z,1.40
2018-08-27T17:53:00.098Z,1.83
2018-08-27T17:55:28.721Z,1.90
2018-08-27T17:57:57.490Z,1.47
2018-08-27T18:00:27.499Z,1.43
2018-08-27T18:02:56.692Z,1.40
2018-08-27T18:05:27.397Z,1.43
2018-08-27T18:07:56.066Z,1.40
2018-08-27T18:10:25.415Z,2.00
2018-08-27T18:12:54.207Z,1.80
2018-08-27T18:15:23.018Z,1.60
2018-08-27T18:17:52.150Z,1.17
2018-08-27T18:20:21.007Z,2.20
2018-08-27T18:22:50.450Z,1.87
2018-08-27T18:25:20.297Z,5.20
2018-08-27T18:27:49.016Z,10.00
2018-08-27T18:30:17.631Z,6.93
2018-08-27T18:32:46.729Z,6.33
2018-08-27T18:35:15.469Z,3.57
2018-08-27T18:37:44.042Z,2.30
2018-08-27T18:40:13.853Z,3.17
2018-08-27T18:42:42.566Z,3.53
2018-08-27T18:45:11.274Z,5.13
2018-08-27T18:47:39.992Z,6.37
2018-08-27T18:50:09.890Z,5.73
2018-08-27T18:52:38.632Z,6.53
2018-08-27T18:55:08.490Z,1.90
2018-08-27T18:57:37.238Z,2.90
2018-08-27T19:00:06.427Z,1.70
2018-08-27T19:02:34.962Z,1.90
2018-08-27T19:05:03.555Z,2.50
2018-08-27T19:07:32.856Z,2.30
2018-08-27T19:10:01.543Z,1.93
2018-08-27T19:12:31.443Z,1.87
2018-08-27T19:15:01.067Z,1.63
2018-08-27T19:17:29.987Z,1.90
2018-08-27T19:19:58.574Z,2.37
2018-08-27T19:22:28.129Z,1.93
2018-08-27T19:24:56.675Z,2.23
2018-08-27T19:27:25.355Z,2.60
2018-08-27T19:29:53.950Z,1.83
2018-08-27T19:32:22.899Z,2.40
2018-08-27T19:34:51.552Z,1.97
2018-08-27T19:37:21.831Z,2.00
2018-08-27T19:39:50.542Z,3.47
2018-08-27T19:42:19.560Z,2.40
2018-08-27T19:44:48.283Z,2.17
2018-08-27T19:47:16.914Z,2.00
2018-08-27T19:49:45.692Z,2.13
2018-08-27T19:52:14.716Z,2.10
2018-08-27T19:54:44.092Z,2.40
2018-08-27T19:57:13.673Z,2.57
2018-08-27T19:59:43.021Z,2.20
2018-08-27T20:02:12.326Z,2.50
2018-08-27T20:04:41.231Z,2.23
2018-08-27T20:07:10.474Z,2.00
2018-08-27T20:09:39.055Z,2.73
2018-08-27T20:12:07.696Z,1.93
2018-08-27T20:14:36.394Z,2.50
2018-08-27T20:17:05.245Z,2.57
2018-08-27T20:19:33.794Z,2.17
2018-08-27T20:22:02.626Z,2.00
2018-08-27T20:24:31.176Z,2.10
2018-08-27T20:26:59.744Z,2.40
2018-08-27T20:29:28.248Z,2.73
2018-08-27T20:31:56.815Z,3.10
2018-08-27T20:34:25.344Z,2.20
2018-08-27T20:36:54.002Z,2.40
2018-08-27T20:39:23.080Z,2.43
2018-08-27T20:41:51.933Z,2.27
2018-08-27T20:44:20.726Z,2.67
2018-08-27T20:46:49.362Z,2.03
2018-08-27T20:49:17.999Z,2.33
2018-08-27T20:51:46.783Z,2.60
2018-08-27T20:54:15.466Z,2.67
2018-08-27T20:56:44.643Z,2.50
2018-08-27T20:59:14.383Z,2.30
2018-08-27T21:01:42.960Z,2.53
2018-08-27T21:04:12.066Z,2.27
2018-08-27T21:06:40.802Z,2.20
2018-08-27T21:09:09.330Z,3.77
2018-08-27T21:11:38.019Z,2.13
2018-08-27T21:15:15.831Z,3.23
2018-08-27T21:17:45.983Z,2.40
2018-08-27T21:20:15.435Z,2.30
2018-08-27T21:22:44.007Z,4.03
2018-08-27T21:25:13.405Z,2.40
2018-08-27T21:27:42.714Z,2.60
2018-08-27T21:30:13.025Z,2.70
2018-08-27T21:32:41.959Z,3.27
2018-08-27T21:35:10.859Z,2.23
2018-08-27T21:37:39.434Z,2.83
2018-08-27T21:40:08.304Z,2.20
2018-08-27T21:42:37.611Z,2.13
2018-08-27T21:45:06.354Z,2.10
2018-08-27T21:47:34.920Z,3.07
2018-08-27T21:50:03.753Z,2.73
2018-08-27T21:52:32.539Z,2.40
2018-08-27T21:55:01.116Z,2.73
2018-08-27T21:57:29.817Z,2.93
2018-08-27T21:59:58.525Z,2.43
2018-08-27T22:02:32.442Z,5.63
2018-08-27T22:10:44.584Z,2.70
2018-08-27T22:13:13.018Z,2.87
2018-08-27T22:15:41.545Z,2.73
2018-08-27T22:18:10.102Z,2.27
2018-08-27T22:20:38.633Z,2.10
2018-08-27T22:23:07.966Z,3.10
2018-08-27T22:25:37.083Z,2.43
2018-08-27T22:28:05.583Z,2.70
2018-08-27T22:30:34.639Z,2.57
2018-08-27T22:33:03.734Z,2.40
2018-08-27T22:35:32.305Z,3.10
2018-08-27T22:38:00.789Z,2.00
2018-08-27T22:40:30.113Z,2.57
2018-08-27T22:42:59.326Z,2.43
2018-08-27T22:45:27.847Z,3.30
2018-08-27T22:47:56.915Z,2.43
2018-08-27T22:50:26.230Z,3.13
2018-08-27T22:52:54.726Z,2.43
2018-08-27T22:55:23.485Z,2.57
2018-08-27T22:57:51.987Z,2.90
2018-08-27T23:00:24.760Z,2.90
2018-08-27T23:02:58.523Z,2.60
2018-08-27T23:05:27.048Z,3.83
2018-08-27T23:07:55.534Z,2.90
2018-08-27T23:10:24.075Z,2.57
2018-08-27T23:12:52.847Z,2.67
2018-08-27T23:15:21.516Z,2.70
2018-08-27T23:17:50.011Z,2.70
2018-08-27T23:20:18.522Z,2.33
2018-08-27T23:22:47.301Z,3.20
2018-08-27T23:25:15.855Z,2.90
2018-08-27T23:27:44.439Z,2.60
2018-08-27T23:30:12.970Z,2.40
2018-08-27T23:32:41.548Z,3.10
2018-08-27T23:35:10.098Z,2.43
2018-08-27T23:37:38.684Z,3.07
2018-08-27T23:40:07.556Z,2.53
2018-08-27T23:42:37.445Z,2.80
2018-08-27T23:45:06.262Z,2.53
2018-08-27T23:47:34.719Z,3.30
2018-08-27T23:50:03.582Z,2.97
2018-08-27T23:52:32.232Z,3.07
2018-08-27T23:55:01.638Z,2.70
2018-08-27T23:57:30.172Z,3.23
2018-08-27T23:59:58.701Z,2.57
